ADDS METAR Data INFO
IDs: Format: Raw Decoded Include TAF

Data at: 1538 UTC 25 Feb 2018

KHYI 251456Z 01013KT 10SM BKN080 16/12 A3002 RMK AO2 LTG DSNT N AND NE TSB32E53 SLP160 T01610117 51017 $
KHYI 251438Z 01011KT 10SM TS BKN085 15/11 A3003 RMK AO2 TSB32 $
KHYI 251356Z 04009KT 10SM SCT100 BKN120 14/11 A3001 RMK AO2 TSE01 SLP157 T01390106 $
KHYI 251307Z 05008KT 10SM BKN034 14/10 A2999 RMK AO2 LTG DSNT E-S TSE01 $
KHYI 251256Z 05007KT 10SM VCTS OVC034 14/10 A2999 RMK AO2 LTG DSNT E-S TSB24 SLP148 T01440100 $
KHYI 251230Z AUTO 02010KT 10SM VCTS OVC032 15/09 A2997 RMK AO2 LTG DSNT SE-SW TSB24 $
KHYI 251156Z AUTO 01009KT 10SM OVC032 15/09 A2997 RMK AO2 LTG DSNT E-S SLP141 T01500094 10161 20150 50005 $
KHYI 251056Z AUTO 05006KT 10SM OVC034 16/10 A2998 RMK AO2 SLP145 T01560100 $
KHYI 251013Z AUTO 03007KT 10SM OVC030 15/11 A2996 RMK AO2 $
KHYI 250956Z AUTO 02009KT 10SM OVC028 16/11 A2995 RMK AO2 SLP133 T01560106 $
KHYI 250856Z AUTO 03008KT 10SM OVC026 16/11 A2996 RMK AO2 SLP136 T01560106 57010 $
KHYI 250837Z AUTO 03007KT 10SM BKN024 16/11 A2996 RMK AO2 $
KHYI 250756Z AUTO 36008KT 10SM SCT023 15/11 A2996 RMK AO2 SLP138 T01500111 $
KHYI 250747Z AUTO 01009KT 10SM SCT023 BKN029 16/11 A2996 RMK AO2 $
KHYI 250740Z AUTO 02009KT 10SM SCT023 SCT029 16/11 A2997 RMK AO2 $
KHYI 250656Z AUTO 02007KT 10SM BKN021 16/11 A2998 RMK AO2 SLP145 T01560106 $
KHYI 250556Z AUTO 05010KT 10SM OVC019 16/11 A2999 RMK AO2 SLP146 T01610111 10217 20161 402390161 51010 $
KHYI 250544Z AUTO 04011KT 10SM BKN019 BKN028 16/11 A2999 RMK AO2 $
KHYI 250517Z AUTO 03012KT 10SM FEW018 SCT028 17/11 A2999 RMK AO2 $
KHYI 250456Z AUTO 04014KT 10SM BKN016 BKN024 17/12 A2998 RMK AO2 SLP146 T01670117 $
KHYI 250451Z AUTO 04016KT 10SM BKN016 OVC035 17/12 A2998 RMK AO2 $
KHYI 250438Z AUTO 03012KT 10SM BKN014 BKN035 17/14 A2997 RMK AO2 $
KHYI 250405Z AUTO 02008KT 5SM BR BKN020 19/18 A2996 RMK AO2 $
KHYI 250356Z AUTO 01007KT 5SM BR SCT020 19/18 A2996 RMK AO2 SLP136 T01890183 $
KHYI 250256Z AUTO 06005KT 4SM BR CLR 17/17 A2992 RMK AO2 SLP123 T01720172 53014 $
KHYI 250156Z AUTO 26003KT 8SM CLR 19/18 A2990 RMK AO2 SLP117 T01890183 $
KHYI 250056Z AUTO 19003KT 10SM CLR 21/19 A2988 RMK AO2 SLP112 T02060189 $
KHYI 242356Z 00000KT 9SM BR CLR 22/19 A2988 RMK AO2 SLP110 T02170194 10239 20217 53006 $
KHYI 242256Z 21006KT 10SM BR CLR 23/19 A2986 RMK AO2 SLP103 T02280194 $
KHYI 242156Z 21011KT 10SM BR CLR 23/19 A2985 RMK AO2 SLP100 T02330194 $
KHYI 242056Z 21011KT 3SM BR FEW013 23/20 A2986 RMK AO2 SLP104 T02330200 58020 $
KHYI 242032Z 21009KT 3SM BR SCT013 23/20 A2985 RMK AO2 $
KHYI 242016Z 20010KT 3SM BR BKN013 BKN018 BKN032 23/19 A2985 RMK AO2 $
KHYI 242010Z 19011KT 3SM BR SCT013 SCT018 BKN032 23/20 A2985 RMK AO2 PRESFR $
KHYI 241956Z 21008KT 3SM BR BKN013 BKN018 OVC030 23/20 A2988 RMK AO2 SLP110 T02280200 $
KHYI 241929Z 21008KT 5SM BR BKN013 BKN024 BKN031 22/19 A2989 RMK AO2 $
KHYI 241856Z 19011KT 7SM BKN016 BKN023 OVC032 22/19 A2990 RMK AO2 SLP118 T02170194 $
KHYI 241846Z 18010KT 7SM BKN014 BKN020 OVC032 22/19 A2991 RMK AO2 $
KHYI 241756Z 20007KT 7SM BKN020 BKN024 OVC031 22/19 A2992 RMK AO2 SLP124 T02220194 10222 20200 50002 $
KHYI 241656Z 20009KT 7SM OVC018 22/19 A2992 RMK AO2 SLP125 T02170194 $
KHYI 241556Z 19013KT 7SM BKN016 OVC022 22/19 A2991 RMK AO2 SLP122 T02220194 $
KHYI 241549Z 19012G21KT 7SM BKN016 BKN032 22/20 A2991 RMK AO2 $
KHYI 241534Z 19014KT 7SM BKN011 22/19 A2991 RMK AO2 $
KHYI 241456Z 18015KT 10SM SCT036 BKN120 22/19 A2991 RMK AO2 SLP122 T02170194 53006 $
KHYI 241303Z 17014KT 10SM BR CLR 20/19 A2989 RMK AO2 $
KHYI 241256Z 17014KT 4SM BR BKN011 20/19 A2989 RMK AO2 SLP115 T02000189 $
KHYI 241236Z AUTO 18015KT 10SM SCT011 20/19 A2989 RMK AO2 $
KHYI 241156Z AUTO 18012KT 7SM OVC007 20/19 A2989 RMK AO2 CIG 004V009 SLP114 60002 70032 T02000194 10206 20194 55007 $
KHYI 241136Z AUTO 16013KT 6SM BR BKN007 20/19 A2987 RMK AO2 LTG DSNT E CIG 004V010 $
KHYI 241112Z AUTO 17010G21KT 6SM BR FEW007 20/19 A2986 RMK AO2 $
KHYI 241056Z AUTO 15017KT 7SM FEW028 20/19 A2986 RMK AO2 PRESFR SLP104 P0002 T02000194 $
KHYI 241018Z AUTO 16013KT 6SM BR SCT009 20/19 A2990 RMK AO2 P0001 $
KHYI 241009Z AUTO 17015KT 6SM BR SCT005 BKN009 20/19 A2991 RMK AO2 P0001 $
KHYI 240956Z AUTO 16012KT 7SM BKN005 OVC009 20/19 A2992 RMK AO2 CIG 004V008 SLP124 T02000194 $
KHYI 240856Z AUTO 15008KT 6SM BR OVC003 19/19 A2991 RMK AO2 SLP121 T01940189 58027 $
KHYI 240846Z AUTO 14009KT 5SM BR BKN003 OVC007 19/19 A2992 RMK AO2 $
KHYI 240756Z AUTO 15008KT 7SM OVC009 19/19 A2997 RMK AO2 CIG 007V013 SLP142 T01940189 $
KHYI 240737Z AUTO 16007KT 8SM OVC009 19/19 A2998 RMK AO2 CIG 007V013 $
KHYI 240656Z AUTO 15007KT 8SM BKN013 OVC018 19/19 A2999 RMK AO2 SLP148 T01940189 $
KHYI 240613Z AUTO 14010KT 9SM BKN015 OVC022 19/19 A2998 RMK AO2 $
KHYI 240556Z AUTO 14009KT 10SM OVC013 19/18 A2999 RMK AO2 SLP152 T01940183 10211 20194 402280067 58004 $
KHYI 240507Z AUTO 14008KT 10SM OVC013 20/18 A3000 RMK AO2 $
KHYI 240456Z AUTO 15009KT 10SM OVC016 20/18 A3001 RMK AO2 SLP156 T02000183 $
KHYI 240356Z AUTO 15011KT 10SM BKN022 OVC050 20/18 A3001 RMK AO2 SLP158 T02000183 $